Time;durP1;ratioP1;P1;durP2;ratioP2;P2;SDS_P1;SDS_P2;PMS_P1;PMS_P2;Temp;Humidity;BMP_temperature;BMP_pressure;BME280_temperature;BME280_humidity;BME280_pressure;Samples;Min_cycle;Max_cycle;Signal;HPM_P1;HPM_P2
2021/05/27 00:00:54;;;;;;;5.33;4.08;;;;;;;11.28;72.05;100014.91;127976;1098;24688;-75
2021/05/27 00:03:24;;;;;;;5.03;3.93;;;;;;;11.25;72.06;100005.52;128008;1098;22356;-76
2021/05/27 00:05:54;;;;;;;10.75;4.75;;;;;;;11.24;71.96;100006.52;127803;1101;22386;-76
2021/05/27 00:08:23;;;;;;;6.35;4.15;;;;;;;11.21;71.98;99995.48;128038;1101;22507;-75
2021/05/27 00:10:53;;;;;;;6.77;4.07;;;;;;;11.18;72.00;100001.95;127997;1101;22407;-75
2021/05/27 00:13:22;;;;;;;5.50;4.00;;;;;;;11.15;71.90;100007.59;127975;1101;22472;-75
2021/05/27 00:15:52;;;;;;;5.85;4.23;;;;;;;11.16;72.30;100006.61;128029;1100;22350;-76
2021/05/27 00:18:22;;;;;;;8.18;4.38;;;;;;;11.20;72.18;100009.72;128024;1101;23142;-75
2021/05/27 00:20:52;;;;;;;4.83;3.93;;;;;;;11.17;72.05;100016.18;128014;1098;22369;-78
2021/05/27 00:23:22;;;;;;;6.83;3.93;;;;;;;11.14;72.03;100005.96;127896;1101;22378;-80
2021/05/27 00:25:52;;;;;;;5.70;3.68;;;;;;;11.12;71.75;100012.42;128072;1101;22372;-74
2021/05/27 00:28:21;;;;;;;6.25;4.40;;;;;;;11.08;72.08;100011.96;128058;1098;25227;-74
2021/05/27 00:30:51;;;;;;;8.90;4.10;;;;;;;11.09;72.28;100016.23;128026;1101;22343;-75
2021/05/27 00:33:21;;;;;;;6.18;4.15;;;;;;;11.11;72.20;100018.72;128032;1101;22391;-74
2021/05/27 00:35:50;;;;;;;4.83;4.20;;;;;;;11.11;72.06;100016.89;128045;1101;22367;-74
2021/05/27 00:38:20;;;;;;;6.28;4.30;;;;;;;11.08;72.17;100012.78;128054;1101;22383;-74
2021/05/27 00:40:49;;;;;;;10.93;3.90;;;;;;;11.09;72.26;100016.23;128010;1098;22368;-76
2021/05/27 00:43:19;;;;;;;6.00;3.85;;;;;;;11.07;72.16;100010.33;128006;1101;22858;-74
2021/05/27 00:45:49;;;;;;;6.08;3.90;;;;;;;11.08;72.28;100009.31;127973;1098;22418;-74
2021/05/27 00:51:06;;;;;;;6.07;3.87;;;;;;;11.14;72.30;100008.61;128008;1101;22362;-74
2021/05/27 00:53:36;;;;;;;4.63;3.60;;;;;;;11.14;72.03;100003.31;128020;1098;25012;-74
2021/05/27 00:56:06;;;;;;;4.75;3.60;;;;;;;11.14;72.06;99999.86;128019;1101;22679;-74
2021/05/27 00:58:37;;;;;;;5.35;3.90;;;;;;;11.12;71.94;100002.66;127993;1098;22368;-74
2021/05/27 01:01:06;;;;;;;5.55;4.20;;;;;;;11.10;71.89;100006.52;128039;1098;22373;-75
2021/05/27 01:03:37;;;;;;;5.50;3.67;;;;;;;11.11;71.97;100008.14;128001;1101;22381;-73
2021/05/27 01:06:07;;;;;;;4.63;3.53;;;;;;;11.11;72.02;100008.14;127842;1098;22380;-75
2021/05/27 01:08:38;;;;;;;5.70;3.33;;;;;;;11.14;72.27;100013.89;128011;1101;22366;-75
2021/05/27 01:11:08;;;;;;;4.50;3.13;;;;;;;11.20;72.30;100005.25;128008;1101;22365;-75
2021/05/27 01:13:38;;;;;;;5.05;3.45;;;;;;;11.24;72.23;100003.88;128065;1101;22395;-73
2021/05/27 01:16:18;;;;;;;4.15;3.13;;;;;;;11.27;72.13;100000.06;128028;1098;22352;-73
2021/05/27 01:18:49;;;;;;;4.20;2.83;;;;;;;11.25;71.68;99997.58;127819;1102;22366;-74
2021/05/27 01:21:19;;;;;;;4.43;2.80;;;;;;;11.24;71.95;100001.23;128021;1101;22366;-74
2021/05/27 01:23:49;;;;;;;4.08;2.53;;;;;;;11.28;72.08;100010.44;127988;1098;22816;-74
2021/05/27 01:26:20;;;;;;;4.33;2.80;;;;;;;11.34;72.00;100008.09;127989;1098;25022;-76
2021/05/27 01:28:51;;;;;;;7.20;2.83;;;;;;;11.39;71.77;100000.42;127858;1098;24531;-76
2021/05/27 01:31:21;;;;;;;3.40;2.73;;;;;;;11.43;71.68;99997.25;127878;1098;22366;-74
2021/05/27 01:33:50;;;;;;;5.23;2.63;;;;;;;11.48;71.64;100012.56;128003;1101;22363;-74
2021/05/27 01:36:21;;;;;;;3.33;2.80;;;;;;;11.52;71.57;100008.55;128066;1098;22460;-75
2021/05/27 01:38:50;;;;;;;3.30;2.37;;;;;;;11.54;71.46;100010.01;128050;1101;22369;-75
2021/05/27 01:41:20;;;;;;;4.25;2.40;;;;;;;11.57;71.37;100016.77;127987;1101;22352;-74
2021/05/27 01:43:50;;;;;;;3.30;2.38;;;;;;;11.59;71.36;100014.74;128001;1098;24953;-76
2021/05/27 01:46:19;;;;;;;3.55;2.33;;;;;;;11.64;71.20;100015.03;128014;1101;22437;-75
2021/05/27 01:48:49;;;;;;;4.13;2.00;;;;;;;11.68;71.10;100013.66;127987;1101;22377;-76
2021/05/27 01:51:19;;;;;;;3.00;2.00;;;;;;;11.71;70.88;100009.83;128020;1098;22369;-75
2021/05/27 01:53:50;;;;;;;2.90;1.70;;;;;;;11.73;70.62;100010.48;127819;1098;24504;-75
2021/05/27 01:56:22;;;;;;;5.03;2.40;;;;;;;11.75;70.62;100019.85;128055;1101;22454;-76
2021/05/27 01:58:52;;;;;;;4.13;2.15;;;;;;;11.77;70.54;100020.50;128008;1101;22371;-74
2021/05/27 02:01:22;;;;;;;3.18;2.03;;;;;;;11.78;70.46;100019.48;127789;1098;24479;-76
2021/05/27 02:03:52;;;;;;;2.95;2.35;;;;;;;11.83;70.40;100021.60;127842;1102;22381;-76
2021/05/27 02:06:22;;;;;;;5.57;2.20;;;;;;;11.88;70.13;100021.06;128039;1101;22368;-74
2021/05/27 02:09:09;;;;;;;4.27;2.40;;;;;;;11.88;70.18;100023.71;128032;1098;24342;-75
2021/05/27 02:11:59;;;;;;;3.93;2.55;;;;;;;11.86;69.57;100023.91;128033;1100;22383;-75
2021/05/27 02:14:29;;;;;;;4.18;2.10;;;;;;;11.88;69.83;100021.06;128037;1101;22370;-75
2021/05/27 02:16:59;;;;;;;3.48;2.23;;;;;;;11.88;69.96;100023.71;127782;1098;22406;-75
2021/05/27 02:19:29;;;;;;;3.63;2.45;;;;;;;11.92;69.78;100028.45;128023;1098;24255;-74
2021/05/27 02:21:59;;;;;;;3.98;1.85;;;;;;;11.94;70.00;100025.63;127968;1098;22435;-76
2021/05/27 02:24:48;;;;;;;4.83;2.03;;;;;;;11.91;69.73;100032.11;128029;1098;24268;-74
2021/05/27 02:27:21;;;;;;;3.30;1.90;;;;;;;11.93;69.80;100027.46;128026;1098;24498;-75
2021/05/27 02:29:50;;;;;;;4.18;2.05;;;;;;;11.95;69.74;100024.62;128015;1098;22380;-75
2021/05/27 02:32:21;;;;;;;3.10;2.13;;;;;;;11.93;69.73;100029.30;128016;1098;22350;-75
2021/05/27 02:34:50;;;;;;;2.88;1.98;;;;;;;11.94;69.92;100030.92;128044;1098;24521;-75
2021/05/27 02:37:20;;;;;;;4.08;1.95;;;;;;;11.94;69.72;100026.45;128030;1101;22383;-76
2021/05/27 02:39:52;;;;;;;4.75;2.05;;;;;;;11.93;69.66;100031.94;128008;1098;22379;-75
2021/05/27 02:42:24;;;;;;;6.83;2.30;;;;;;;11.93;69.75;100038.05;127769;1104;22342;-75
2021/05/27 02:44:55;;;;;;;2.23;1.63;;;;;;;11.94;69.51;100044.16;127805;1101;22367;-75
2021/05/27 02:47:25;;;;;;;2.98;2.05;;;;;;;11.91;69.46;100041.88;127767;1104;22410;-78
2021/05/27 02:49:55;;;;;;;4.98;2.53;;;;;;;11.89;69.60;100044.69;127715;1102;22375;-76
2021/05/27 02:52:26;;;;;;;3.77;2.57;;;;;;;11.87;69.62;100051.20;127765;1101;22380;-75
2021/05/27 02:54:56;;;;;;;3.05;2.65;;;;;;;11.86;69.47;100052.18;127765;1101;24488;-75
2021/05/27 02:57:26;;;;;;;5.03;2.77;;;;;;;11.84;69.44;100055.02;127763;1101;24514;-76
2021/05/27 02:59:55;;;;;;;5.00;3.55;;;;;;;11.83;69.47;100052.52;127793;1102;22369;-75
2021/05/27 03:02:36;;;;;;;6.10;2.63;;;;;;;11.82;69.64;100061.47;128023;1101;22381;-75
2021/05/27 03:05:06;;;;;;;3.95;2.40;;;;;;;11.80;69.53;100056.37;128029;1098;24521;-74
2021/05/27 03:07:39;;;;;;;3.38;2.00;;;;;;;11.80;69.51;100074.08;128033;1101;22492;-76
2021/05/27 03:10:11;;;;;;;4.25;2.13;;;;;;;11.81;69.14;100070.42;128080;1098;22472;-75
2021/05/27 03:12:41;;;;;;;4.78;2.03;;;;;;;11.83;69.28;100073.69;128031;1098;24255;-76
2021/05/27 03:15:12;;;;;;;3.93;2.60;;;;;;;11.86;69.24;100065.41;128007;1101;22370;-75
2021/05/27 03:17:41;;;;;;;4.80;2.35;;;;;;;11.87;69.15;100075.02;127995;1098;22362;-74
2021/05/27 03:20:12;;;;;;;7.18;2.73;;;;;;;11.87;68.94;100075.02;128055;1098;24249;-75
2021/05/27 03:22:42;;;;;;;6.50;2.80;;;;;;;11.88;68.97;100080.11;128018;1098;24332;-75
2021/05/27 03:25:12;;;;;;;4.40;2.50;;;;;;;11.91;68.79;100076.29;128015;1101;23136;-75
2021/05/27 03:27:42;;;;;;;4.05;2.48;;;;;;;11.92;68.71;100078.73;127824;1101;22385;-76
2021/05/27 03:30:14;;;;;;;6.05;2.50;;;;;;;11.96;68.71;100087.13;128022;1101;22363;-75
2021/05/27 03:32:45;;;;;;;2.63;2.08;;;;;;;11.97;68.42;100091.44;127856;1098;25025;-76
2021/05/27 03:35:15;;;;;;;5.35;2.53;;;;;;;11.97;68.32;100092.27;128049;1098;24492;-76
2021/05/27 03:37:45;;;;;;;2.95;2.65;;;;;;;11.99;68.81;100094.70;128041;1101;22381;-75
2021/05/27 03:40:17;;;;;;;6.88;2.63;;;;;;;11.98;68.44;100099.19;128051;1101;22353;-76
2021/05/27 03:42:55;;;;;;;3.90;2.45;;;;;;;11.99;68.30;100105.30;128028;1098;24255;-75
2021/05/27 03:45:30;;;;;;;5.15;3.38;;;;;;;11.95;68.13;100096.09;128027;1098;24326;-75
2021/05/27 03:48:08;;;;;;;4.38;2.00;;;;;;;11.91;68.10;100098.28;128010;1098;22386;-76
2021/05/27 03:50:39;;;;;;;4.48;2.40;;;;;;;11.89;68.11;100100.28;128016;1098;24319;-76
2021/05/27 03:53:11;;;;;;;3.88;2.55;;;;;;;11.90;68.24;100104.59;128081;1098;24498;-75
2021/05/27 03:55:42;;;;;;;3.73;2.53;;;;;;;11.91;68.10;100103.58;127990;1098;22418;-75
2021/05/27 04:01:02;;;;;;;4.25;2.10;;;;;;;11.85;68.08;100112.23;128009;1098;24485;-76
2021/05/27 04:09:17;;;;;;;4.53;2.50;;;;;;;11.78;68.16;100114.76;128026;1101;22381;-76
2021/05/27 04:11:47;;;;;;;3.70;2.30;;;;;;;11.81;68.46;100118.05;127841;1098;22406;-74
2021/05/27 04:14:17;;;;;;;5.37;2.73;;;;;;;11.80;68.07;100116.42;128002;1098;24271;-76
2021/05/27 04:16:46;;;;;;;5.45;2.20;;;;;;;11.81;68.08;100128.64;127844;1101;22469;-75
2021/05/27 04:19:16;;;;;;;3.93;2.53;;;;;;;11.81;68.18;100120.70;128012;1098;22414;-76
2021/05/27 04:21:45;;;;;;;3.13;2.35;;;;;;;11.84;68.25;100136.22;128032;1098;24501;-75
2021/05/27 04:24:15;;;;;;;3.28;2.15;;;;;;;11.89;68.28;100136.52;127984;1098;22379;-75
2021/05/27 04:26:44;;;;;;;3.23;2.03;;;;;;;11.94;68.24;100140.27;127993;1098;24341;-74
2021/05/27 04:29:14;;;;;;;3.30;1.80;;;;;;;12.00;68.18;100128.14;127996;1098;22462;-74
2021/05/27 04:31:44;;;;;;;7.13;2.50;;;;;;;12.07;68.38;100131.70;128021;1098;22369;-74
2021/05/27 04:34:14;;;;;;;3.35;2.00;;;;;;;12.12;67.68;100134.61;127993;1101;22366;-74
2021/05/27 04:36:43;;;;;;;2.78;2.00;;;;;;;12.19;67.60;100139.99;128034;1101;22366;-76
2021/05/27 04:39:13;;;;;;;3.88;2.25;;;;;;;12.27;67.58;100133.80;128047;1101;22429;-76
2021/05/27 04:41:42;;;;;;;3.03;2.23;;;;;;;12.38;67.63;100136.78;127826;1101;22381;-74
2021/05/27 04:44:12;;;;;;;3.30;1.93;;;;;;;12.48;67.35;100139.15;128052;1098;23314;-74
2021/05/27 04:46:42;;;;;;;4.05;1.80;;;;;;;12.56;66.75;100144.36;128039;1101;22378;-75
2021/05/27 04:49:11;;;;;;;3.35;1.75;;;;;;;12.66;66.63;100144.89;128029;1098;24249;-75
2021/05/27 04:51:41;;;;;;;2.85;1.78;;;;;;;12.77;66.34;100135.63;128009;1098;22414;-74
2021/05/27 04:54:10;;;;;;;2.90;1.73;;;;;;;12.87;65.78;100148.58;128046;1098;24504;-76
2021/05/27 04:56:40;;;;;;;2.45;1.10;;;;;;;12.92;65.05;100154.94;128022;1101;22380;-76
2021/05/27 04:59:09;;;;;;;1.90;1.30;;;;;;;12.98;64.93;100157.86;128002;1101;22398;-75
2021/05/27 05:01:39;;;;;;;1.88;1.65;;;;;;;13.05;64.26;100169.35;127998;1101;22352;-76
2021/05/27 05:04:09;;;;;;;4.18;1.68;;;;;;;13.16;64.44;100163.53;127845;1098;24612;-75
2021/05/27 05:06:38;;;;;;;2.43;1.30;;;;;;;13.28;63.47;100169.20;128011;1098;22378;-76
2021/05/27 05:09:08;;;;;;;3.00;1.40;;;;;;;13.36;62.94;100175.22;127788;1104;22375;-75
2021/05/27 05:11:38;;;;;;;3.18;1.30;;;;;;;13.51;62.48;100180.44;127757;1101;25009;-76
2021/05/27 05:14:08;;;;;;;6.47;1.93;;;;;;;13.68;61.95;100174.86;127310;1106;22478;-75
2021/05/27 05:16:39;;;;;;;2.35;1.75;;;;;;;13.85;61.51;100178.86;127737;1105;22372;-74
2021/05/27 05:19:08;;;;;;;1.77;1.37;;;;;;;14.02;60.83;100182.05;127748;1104;22369;-75
2021/05/27 05:21:38;;;;;;;2.30;1.45;;;;;;;14.11;60.20;100189.67;127745;1104;22383;-76
2021/05/27 05:24:08;;;;;;;2.78;1.40;;;;;;;14.22;59.61;100198.92;127750;1104;22384;-75
2021/05/27 05:26:38;;;;;;;4.68;1.90;;;;;;;14.31;58.91;100207.58;127731;1102;22381;-75
2021/05/27 05:29:07;;;;;;;2.80;1.95;;;;;;;14.30;58.72;100204.10;128019;1101;22365;-74
2021/05/27 05:31:37;;;;;;;2.43;1.90;;;;;;;14.31;58.49;100203.08;128002;1098;25003;-76
2021/05/27 05:34:07;;;;;;;2.23;1.60;;;;;;;14.43;58.76;100210.48;127854;1101;22362;-76
2021/05/27 05:36:36;;;;;;;4.05;1.58;;;;;;;14.64;58.71;100202.46;128034;1101;22385;-76
2021/05/27 05:39:07;;;;;;;2.38;2.03;;;;;;;14.93;58.23;100221.81;127833;1101;22367;-75
2021/05/27 05:41:39;;;;;;;2.25;1.50;;;;;;;15.11;57.29;100216.74;128029;1098;24501;-81
2021/05/27 05:44:08;;;;;;;2.73;1.93;;;;;;;15.24;56.74;100218.63;127961;1098;24556;-75
2021/05/27 05:46:38;;;;;;;2.80;2.05;;;;;;;15.43;56.79;100222.35;128057;1098;24268;-76
2021/05/27 05:49:08;;;;;;;3.33;2.80;;;;;;;15.68;56.00;100225.27;128004;1100;22365;-75
2021/05/27 05:51:37;;;;;;;5.85;2.33;;;;;;;15.91;55.31;100231.00;128054;1101;22365;-75
2021/05/27 05:54:07;;;;;;;9.40;4.60;;;;;;;16.06;54.46;100232.63;128009;1101;22444;-76
2021/05/27 05:56:37;;;;;;;6.25;2.30;;;;;;;16.31;54.71;100235.47;128019;1101;22364;-76
2021/05/27 05:59:06;;;;;;;3.30;2.20;;;;;;;16.59;54.03;100228.00;127858;1102;22368;-75
2021/05/27 06:01:36;;;;;;;2.38;1.85;;;;;;;16.81;53.48;100235.77;128062;1098;24482;-76
2021/05/27 06:04:06;;;;;;;2.65;2.00;;;;;;;17.12;52.81;100235.00;127820;1098;25109;-75
2021/05/27 06:07:12;;;;;;;3.30;2.38;;;;;;;17.32;51.95;100245.56;127948;1098;22365;-76
2021/05/27 06:09:42;;;;;;;2.98;2.40;;;;;;;17.40;51.46;100248.00;128017;1098;22365;-75
2021/05/27 06:12:11;;;;;;;4.48;2.55;;;;;;;17.56;51.36;100247.48;127978;1098;24182;-75
2021/05/27 06:14:41;;;;;;;4.73;3.63;;;;;;;17.77;50.65;100240.17;128035;1101;22365;-75
2021/05/27 06:17:11;;;;;;;2.68;2.28;;;;;;;17.97;50.22;100243.49;128029;1098;22378;-75
2021/05/27 06:19:40;;;;;;;6.75;2.60;;;;;;;18.23;49.36;100258.48;128014;1098;22796;-76
2021/05/27 06:22:20;;;;;;;4.45;2.73;;;;;;;18.47;49.16;100247.96;128029;1100;23205;-76
2021/05/27 06:24:52;;;;;;;3.58;2.65;;;;;;;18.73;48.20;100255.72;128073;1101;22374;-75
2021/05/27 06:27:21;;;;;;;3.25;2.33;;;;;;;19.01;47.41;100251.67;127824;1100;22376;-76
2021/05/27 06:29:50;;;;;;;2.98;2.30;;;;;;;19.21;46.77;100254.09;127990;1098;23261;-76
2021/05/27 06:32:19;;;;;;;8.00;2.93;;;;;;;19.32;46.30;100257.85;128066;1100;22346;-76
2021/05/27 06:34:48;;;;;;;4.10;2.38;;;;;;;19.34;45.70;100264.63;127998;1098;23204;-75
2021/05/27 06:37:17;;;;;;;2.85;2.53;;;;;;;19.08;45.03;100270.33;128072;1101;22378;-75
2021/05/27 06:39:46;;;;;;;4.65;2.70;;;;;;;18.86;45.18;100254.76;128057;1101;22381;-76
2021/05/27 06:42:15;;;;;;;3.60;2.30;;;;;;;18.81;46.04;100254.59;127848;1098;24518;-75
2021/05/27 06:44:48;;;;;;;3.90;2.80;;;;;;;18.78;45.78;100257.72;128008;1101;22347;-76
2021/05/27 06:47:16;;;;;;;4.00;2.63;;;;;;;18.87;45.88;100268.95;128035;1101;22373;-75
2021/05/27 06:49:45;;;;;;;4.95;3.15;;;;;;;18.94;45.78;100265.14;128015;1101;22351;-74
2021/05/27 06:52:13;;;;;;;6.50;3.63;;;;;;;19.00;45.30;100276.82;127783;1101;22745;-77
2021/05/27 06:54:42;;;;;;;3.40;2.78;;;;;;;18.91;44.69;100272.80;127846;1098;22446;-76
2021/05/27 06:57:11;;;;;;;4.15;3.15;;;;;;;18.76;45.03;100271.34;128068;1098;22365;-77
2021/05/27 06:59:39;;;;;;;3.75;2.60;;;;;;;18.87;44.83;100279.66;127755;1103;22376;-75
2021/05/27 07:02:08;;;;;;;6.60;2.55;;;;;;;18.98;44.68;100276.22;127768;1104;22382;-75
2021/05/27 07:04:38;;;;;;;3.25;2.45;;;;;;;19.21;44.25;100275.52;127805;1104;23256;-77
2021/05/27 07:07:07;;;;;;;8.20;2.98;;;;;;;19.44;43.97;100272.12;127778;1101;22381;-78
2021/05/27 07:09:38;;;;;;;5.40;3.60;;;;;;;19.73;43.71;100273.17;127764;1101;22422;-76
2021/05/27 07:12:07;;;;;;;;;;;;;;;19.80;42.72;100270.38;127835;1104;22399;-77
2021/05/27 07:14:35;;;;;;;4.35;3.03;;;;;;;19.80;43.21;100265.84;127781;1104;21276;-76
2021/05/27 07:17:04;;;;;;;3.98;2.68;;;;;;;19.87;42.76;100271.09;127775;1101;22391;-76
2021/05/27 07:19:33;;;;;;;3.33;2.60;;;;;;;20.08;43.04;100265.16;128010;1098;22361;-77
2021/05/27 07:22:01;;;;;;;3.95;2.65;;;;;;;20.32;42.39;100270.52;128028;1100;23118;-76
2021/05/27 07:24:30;;;;;;;6.43;3.30;;;;;;;20.48;41.94;100272.50;128013;1101;23122;-75
2021/05/27 07:26:58;;;;;;;4.73;2.70;;;;;;;20.68;41.55;100274.84;128037;1101;23132;-75
2021/05/27 07:29:29;;;;;;;5.23;3.10;;;;;;;20.90;41.17;100275.84;128049;1101;22380;-76
2021/05/27 07:31:58;;;;;;;5.13;3.45;;;;;;;21.00;40.98;100287.86;128126;1098;22455;-77
2021/05/27 07:34:28;;;;;;;6.10;2.80;;;;;;;21.02;40.27;100286.54;128021;1098;22357;-75
2021/05/27 07:36:57;;;;;;;2.63;2.10;;;;;;;21.03;39.92;100276.64;128070;1098;25060;-76
2021/05/27 07:39:25;;;;;;;3.68;2.28;;;;;;;20.88;39.77;100283.31;128131;1101;22349;-76
2021/05/27 07:41:54;;;;;;;3.47;2.97;;;;;;;20.79;39.84;100291.97;128072;1098;22420;-76
2021/05/27 07:44:22;;;;;;;2.85;2.53;;;;;;;20.68;40.43;100291.75;128168;1101;22366;-76
2021/05/27 07:46:51;;;;;;;4.18;2.65;;;;;;;20.58;40.17;100296.91;127820;1104;22381;-77
2021/05/27 07:49:19;;;;;;;7.10;3.90;;;;;;;20.65;40.12;100288.73;127763;1101;22398;-76
2021/05/27 07:51:49;;;;;;;4.90;2.78;;;;;;;20.83;39.72;100287.78;127803;1101;24518;-76
2021/05/27 07:54:17;;;;;;;7.88;2.95;;;;;;;20.93;39.99;100274.56;127722;1101;24358;-76
2021/05/27 07:56:46;;;;;;;5.00;2.63;;;;;;;21.07;39.53;100283.16;127533;1101;24514;-75
2021/05/27 07:59:15;;;;;;;3.60;2.47;;;;;;;21.29;39.29;100283.30;127790;1101;22487;-75
2021/05/27 08:01:46;;;;;;;6.88;2.18;;;;;;;21.58;38.89;100289.51;127800;1101;24496;-76
2021/05/27 08:04:16;;;;;;;22.78;2.98;;;;;;;21.77;37.56;100296.30;127824;1098;22363;-76
2021/05/27 08:06:46;;;;;;;2.93;1.98;;;;;;;21.83;37.17;100297.22;128015;1101;22643;-77
2021/05/27 08:09:16;;;;;;;3.83;2.23;;;;;;;21.84;37.19;100296.95;128026;1101;22354;-76
2021/05/27 08:11:45;;;;;;;4.05;2.53;;;;;;;22.01;36.77;100298.84;127849;1098;22339;-76
2021/05/27 08:14:15;;;;;;;2.73;1.98;;;;;;;22.11;36.22;100301.69;127819;1098;22404;-77
2021/05/27 08:16:47;;;;;;;2.88;2.10;;;;;;;22.11;36.03;100308.95;128035;1100;22487;-76
2021/05/27 08:19:17;;;;;;;6.80;3.15;;;;;;;22.22;36.46;100314.27;128045;1098;23138;-78
2021/05/27 08:21:46;;;;;;;2.88;1.90;;;;;;;22.20;35.85;100310.21;128000;1101;22364;-76
2021/05/27 08:24:16;;;;;;;3.28;2.00;;;;;;;22.39;36.17;100308.05;127997;1101;22379;-76
2021/05/27 08:26:47;;;;;;;2.35;1.85;;;;;;;22.33;34.96;100309.06;128014;1101;22384;-77
2021/05/27 08:29:16;;;;;;;2.78;1.85;;;;;;;21.95;34.67;100318.64;128020;1101;22362;-77
2021/05/27 08:31:46;;;;;;;6.03;2.93;;;;;;;21.32;34.99;100313.19;128024;1101;22365;-76
2021/05/27 08:34:16;;;;;;;3.48;2.28;;;;;;;20.72;35.98;100310.89;128057;1098;24512;-76
2021/05/27 08:36:46;;;;;;;5.53;1.85;;;;;;;20.26;36.62;100314.37;127806;1101;25099;-76
2021/05/27 08:39:17;;;;;;;4.23;1.80;;;;;;;20.09;37.85;100319.60;127720;1104;22367;-76
2021/05/27 08:41:46;;;;;;;4.50;1.53;;;;;;;20.22;36.92;100311.34;127776;1101;24377;-76
2021/05/27 08:44:16;;;;;;;3.23;1.83;;;;;;;20.13;36.08;100324.29;127729;1104;22811;-77
2021/05/27 08:46:48;;;;;;;2.30;1.23;;;;;;;20.06;36.75;100312.86;127802;1101;24189;-77
2021/05/27 08:49:18;;;;;;;3.18;1.43;;;;;;;20.42;37.00;100316.36;127794;1101;22371;-76
2021/05/27 08:51:48;;;;;;;2.55;1.35;;;;;;;20.78;36.28;100315.32;127750;1104;22410;-77
2021/05/27 08:54:18;;;;;;;3.45;1.68;;;;;;;20.96;35.53;100316.22;127736;1103;22505;-77
2021/05/27 08:56:47;;;;;;;5.03;2.10;;;;;;;21.23;35.99;100319.20;128038;1098;22359;-76
2021/05/27 08:59:17;;;;;;;5.75;1.90;;;;;;;21.50;34.25;100309.54;127981;1101;22414;-76
2021/05/27 09:02:11;;;;;;;8.50;2.28;;;;;;;21.76;35.12;100313.50;128026;1101;22363;-76
2021/05/27 09:04:41;;;;;;;3.78;1.60;;;;;;;22.12;34.72;100321.33;128036;1101;22380;-76
2021/05/27 09:07:13;;;;;;;5.63;2.40;;;;;;;22.42;34.34;100308.37;128005;1101;22498;-77
2021/05/27 09:09:55;;;;;;;2.50;1.65;;;;;;;22.73;33.93;100316.90;128051;1098;22454;-77
2021/05/27 09:12:48;;;;;;;8.23;2.28;;;;;;;22.85;32.96;100328.35;128047;1098;24262;-77
2021/05/27 09:15:23;;;;;;;3.55;1.73;;;;;;;22.45;32.89;100315.95;127732;1104;22362;-75
2021/05/27 09:17:54;;;;;;;3.43;1.43;;;;;;;22.05;33.03;100321.50;127414;1104;22516;-76
2021/05/27 09:20:26;;;;;;;7.73;1.53;;;;;;;21.68;33.79;100321.95;127875;1101;24197;-76
2021/05/27 09:23:21;;;;;;;2.33;1.15;;;;;;;21.57;34.40;100322.83;127823;1101;22403;-76
2021/05/27 09:25:56;;;;;;;3.27;1.37;;;;;;;21.65;34.67;100335.06;127850;1104;22461;-77
2021/05/27 09:28:28;;;;;;;2.08;1.23;;;;;;;21.38;34.28;100327.57;127423;1103;22567;-78
2021/05/27 09:31:01;;;;;;;;;;;;;;;20.82;33.60;100324.53;127429;1105;25134;-77
2021/05/27 09:33:40;;;;;;;2.43;1.20;;;;;;;20.33;35.31;100321.28;127359;1105;21277;-76
2021/05/27 09:36:19;;;;;;;3.63;1.87;;;;;;;20.06;35.79;100328.10;127352;1105;22501;-75
2021/05/27 09:38:57;;;;;;;2.43;1.43;;;;;;;20.31;37.09;100317.19;127300;1108;22615;-76
2021/05/27 09:41:31;;;;;;;3.08;1.40;;;;;;;20.68;36.49;100315.91;127352;1103;24293;-76
2021/05/27 09:44:27;;;;;;;2.15;1.10;;;;;;;20.79;35.32;100321.50;127374;1105;24530;-76
2021/05/27 09:46:57;;;;;;;1.83;1.43;;;;;;;20.58;35.24;100326.42;127079;1105;23239;-75
2021/05/27 09:49:28;;;;;;;3.18;1.65;;;;;;;20.64;35.06;100330.05;126800;1107;22369;-76
2021/05/27 09:52:14;;;;;;;2.50;1.30;;;;;;;20.68;34.65;100326.65;126825;1109;22410;-75
2021/05/27 09:54:54;;;;;;;2.60;0.90;;;;;;;20.51;34.59;100330.28;127209;1108;22555;-77
2021/05/27 09:57:33;;;;;;;4.07;1.60;;;;;;;20.47;34.31;100331.78;127273;1106;22388;-75
2021/05/27 10:00:06;;;;;;;9.00;2.23;;;;;;;20.64;34.89;100322.81;126884;1108;22422;-75
2021/05/27 10:02:36;;;;;;;8.45;2.33;;;;;;;21.06;34.74;100325.32;126845;1110;22407;-76
2021/05/27 10:05:09;;;;;;;2.30;1.18;;;;;;;21.27;33.98;100331.09;126839;1107;22434;-76
2021/05/27 10:07:45;;;;;;;9.13;1.58;;;;;;;21.32;33.76;100337.36;126931;1108;22423;-76
2021/05/27 10:10:35;;;;;;;1.93;1.08;;;;;;;21.05;33.53;100330.91;126819;1108;22401;-75
2021/05/27 10:13:07;;;;;;;3.75;1.83;;;;;;;20.61;33.30;100341.25;126800;1107;22401;-76
2021/05/27 10:15:37;;;;;;;1.48;0.70;;;;;;;20.11;33.21;100342.47;127384;1105;23307;-76
2021/05/27 10:18:09;;;;;;;3.55;1.03;;;;;;;19.68;34.09;100350.74;127777;1104;22360;-76
2021/05/27 10:20:39;;;;;;;3.58;1.00;;;;;;;19.28;34.12;100346.69;127807;1105;22349;-76
2021/05/27 10:23:10;;;;;;;3.33;1.08;;;;;;;18.92;34.54;100350.20;127764;1104;22377;-77
2021/05/27 10:25:40;;;;;;;2.33;1.08;;;;;;;18.58;35.48;100346.20;127997;1101;22360;-76
2021/05/27 10:28:16;;;;;;;2.98;1.05;;;;;;;18.29;36.13;100337.83;128021;1098;23675;-75
2021/05/27 10:30:46;;;;;;;4.10;1.43;;;;;;;18.10;36.46;100347.64;128045;1101;22427;-75
2021/05/27 10:33:19;;;;;;;4.68;3.08;;;;;;;17.97;37.11;100338.90;127982;1101;22360;-76
2021/05/27 10:35:54;;;;;;;6.93;1.80;;;;;;;17.94;37.60;100352.69;127987;1101;23256;-76
2021/05/27 10:38:40;;;;;;;2.28;1.55;;;;;;;17.85;37.55;100341.43;128058;1101;22377;-77
2021/05/27 10:41:22;;;;;;;8.15;2.08;;;;;;;17.80;38.12;100350.10;128008;1098;25029;-77
2021/05/27 10:44:01;;;;;;;3.25;1.50;;;;;;;17.75;38.01;100354.41;128033;1098;22355;-76
2021/05/27 10:46:33;;;;;;;2.65;2.08;;;;;;;17.65;38.18;100360.22;127965;1098;22361;-76
2021/05/27 10:49:03;;;;;;;13.88;3.65;;;;;;;17.57;38.45;100357.81;127836;1101;23301;-76
2021/05/27 10:51:45;;;;;;;5.08;1.88;;;;;;;17.52;38.33;100357.62;128011;1098;22357;-76
2021/05/27 10:54:27;;;;;;;3.13;1.68;;;;;;;17.53;38.63;100359.27;127831;1098;24495;-76
2021/05/27 10:56:57;;;;;;;2.15;1.10;;;;;;;17.59;38.41;100353.91;128001;1098;22359;-75
2021/05/27 10:59:32;;;;;;;11.50;1.90;;;;;;;17.73;38.74;100361.84;128001;1101;22355;-75
2021/05/27 11:02:05;;;;;;;5.28;1.80;;;;;;;17.97;38.91;100358.42;128059;1101;22362;-76
2021/05/27 11:04:39;;;;;;;2.40;1.55;;;;;;;18.18;38.18;100359.91;127884;1101;22366;-77
2021/05/27 11:07:12;;;;;;;4.70;1.17;;;;;;;18.35;38.53;100346.81;128009;1101;22349;-75
2021/05/27 11:09:45;;;;;;;2.70;1.00;;;;;;;18.58;37.87;100354.22;128011;1101;22359;-77
2021/05/27 11:12:28;;;;;;;5.33;1.15;;;;;;;18.74;37.41;100361.72;127999;1101;22365;-76
2021/05/27 11:15:21;;;;;;;5.00;0.80;;;;;;;18.87;37.25;100351.92;128088;1098;22347;-76
2021/05/27 11:18:07;;;;;;;2.85;1.60;;;;;;;18.91;37.33;100359.27;127231;1108;22404;-76
2021/05/27 11:20:36;;;;;;;2.30;0.90;;;;;;;18.93;36.94;100356.39;127288;1105;24346;-75
2021/05/27 11:23:17;;;;;;;1.88;0.80;;;;;;;18.98;36.84;100351.98;127297;1108;22661;-77
2021/05/27 11:25:46;;;;;;;2.65;1.03;;;;;;;19.07;37.10;100355.20;127437;1107;23182;-74
2021/05/27 11:28:17;;;;;;;2.25;0.93;;;;;;;19.13;36.67;100350.81;127247;1105;24241;-75
2021/05/27 11:30:53;;;;;;;3.15;1.10;;;;;;;19.27;37.10;100349.61;127269;1105;23145;-75
2021/05/27 11:33:22;;;;;;;2.25;1.45;;;;;;;19.37;36.94;100357.11;127365;1104;24230;-75
2021/05/27 11:35:55;;;;;;;1.63;0.93;;;;;;;19.38;36.69;100356.06;127390;1104;22380;-76
2021/05/27 11:38:28;;;;;;;4.88;1.20;;;;;;;19.31;36.71;100364.17;127750;1101;25015;-75
2021/05/27 11:41:06;;;;;;;1.48;0.85;;;;;;;19.27;36.51;100355.77;127701;1103;22519;-75
2021/05/27 11:43:39;;;;;;;1.85;0.88;;;;;;;19.31;36.61;100352.66;127733;1105;22396;-76
2021/05/27 11:46:17;;;;;;;3.35;0.75;;;;;;;19.33;36.58;100355.94;127702;1101;22396;-75
2021/05/27 11:51:32;;;;;;;1.48;0.88;;;;;;;19.42;36.86;100363.41;127736;1105;22377;-75